Time;durP1;ratioP1;P1;durP2;ratioP2;P2;SDS_P1;SDS_P2;PMS_P1;PMS_P2;Temp;Humidity;BMP_temperature;BMP_pressure;BME280_temperature;BME280_humidity;BME280_pressure;Samples;Min_cycle;Max_cycle;Signal;HPM_P1;HPM_P2
2021/06/09 05:49:39;;;;;;;5.97;4.80;;;;;;;22.69;61.21;96845.00;4931529;29;20053;-72
2021/06/09 05:52:05;;;;;;;8.80;4.72;;;;;;;22.71;60.44;96826.38;4960157;28;20039;-72
2021/06/09 05:54:42;;;;;;;7.72;5.00;;;;;;;23.15;59.57;96849.84;4945859;29;20178;-70
2021/06/09 05:57:10;;;;;;;6.82;5.10;;;;;;;23.18;59.39;96846.09;4944244;28;20050;-71
2021/06/09 05:59:39;;;;;;;6.07;5.47;;;;;;;22.65;62.08;96850.78;4945978;29;20486;-72
2021/06/09 06:02:04;;;;;;;8.57;5.15;;;;;;;23.11;61.80;96843.56;4945572;29;20046;-73
2021/06/09 06:04:31;;;;;;;6.35;5.45;;;;;;;23.25;60.70;96843.03;4945344;29;20039;-68
2021/06/09 06:06:58;;;;;;;6.40;5.80;;;;;;;23.50;60.21;96842.94;4944871;29;20035;-70
2021/06/09 06:09:24;;;;;;;6.05;4.90;;;;;;;23.53;57.56;96808.88;4958641;28;20049;-72
2021/06/09 06:11:51;;;;;;;7.30;4.85;;;;;;;23.49;54.96;96787.66;4954773;28;20039;-68
2021/06/09 06:14:17;;;;;;;8.75;4.13;;;;;;;23.61;54.08;96764.16;4964569;28;20066;-62
2021/06/09 06:16:53;;;;;;;5.18;4.10;;;;;;;22.03;52.05;96542.06;4963751;28;20070;-58
2021/06/09 06:19:19;;;;;;;7.60;5.47;;;;;;;23.34;55.20;96721.56;4958983;28;20035;-68
2021/06/09 06:21:46;;;;;;;5.68;4.78;;;;;;;23.74;55.74;96799.56;4964207;28;20370;-66
2021/06/09 06:24:19;;;;;;;8.18;5.25;;;;;;;24.01;55.60;96824.44;4958852;28;20035;-63
2021/06/09 06:26:47;;;;;;;7.93;4.32;;;;;;;24.10;53.19;96832.97;4952024;28;20504;-70
2021/06/09 06:29:12;;;;;;;5.57;5.03;;;;;;;24.01;54.55;96832.94;4974394;28;20049;-64
2021/06/09 06:31:39;;;;;;;13.15;4.93;;;;;;;23.85;54.95;96818.97;4963028;28;20481;-59
2021/06/09 06:34:05;;;;;;;8.95;5.03;;;;;;;23.88;55.88;96823.72;4962755;28;20501;-66
2021/06/09 06:36:31;;;;;;;7.35;4.88;;;;;;;23.47;55.62;96841.03;4962712;28;20700;-63
2021/06/09 06:38:57;;;;;;;5.45;4.53;;;;;;;23.43;54.93;96786.66;4964105;28;20142;-69
2021/06/09 06:41:26;;;;;;;5.63;4.68;;;;;;;23.55;54.76;96780.16;4963334;28;20047;-63
2021/06/09 06:43:52;;;;;;;6.57;4.75;;;;;;;23.39;54.91;96735.13;4963865;28;20089;-61
2021/06/09 06:46:18;;;;;;;10.15;4.82;;;;;;;24.12;54.46;96812.69;4954219;28;20034;-61
2021/06/09 06:48:48;;;;;;;4.78;4.38;;;;;;;24.15;53.37;96814.59;4957570;28;20061;-69
2021/06/09 06:51:15;;;;;;;5.18;4.70;;;;;;;24.36;52.99;96831.50;4961358;28;20031;-62
2021/06/09 06:53:43;;;;;;;4.88;4.20;;;;;;;23.51;53.25;96675.66;4962592;28;20042;-71
2021/06/09 06:56:09;;;;;;;6.55;4.80;;;;;;;24.26;52.60;96752.66;4962284;28;20038;-66
2021/06/09 06:58:50;;;;;;;4.90;4.50;;;;;;;24.39;53.49;96798.66;4964331;28;20517;-69
2021/06/09 07:01:18;;;;;;;6.50;4.60;;;;;;;24.43;53.24;96773.78;4967317;28;20437;-72
2021/06/09 07:03:45;;;;;;;5.07;4.55;;;;;;;24.84;50.02;96819.41;4968198;28;20110;-66
2021/06/09 07:06:11;;;;;;;8.15;4.72;;;;;;;24.46;49.54;96716.22;4998830;28;20046;-72
2021/06/09 07:08:38;;;;;;;4.65;4.22;;;;;;;25.36;49.69;96818.34;4999034;28;20130;-72
2021/06/09 07:11:05;;;;;;;7.03;4.20;;;;;;;25.58;49.72;96818.16;4966769;28;20070;-57
2021/06/09 07:13:32;;;;;;;4.97;4.57;;;;;;;25.71;49.03;96787.56;4967546;28;20038;-60
2021/06/09 07:16:16;;;;;;;8.60;4.35;;;;;;;25.84;49.35;96808.03;4967124;28;20493;-58
2021/06/09 07:18:46;;;;;;;5.25;4.32;;;;;;;26.10;48.16;96827.06;4966660;28;20035;-67
2021/06/09 07:21:20;;;;;;;3.88;3.60;;;;;;;26.13;45.92;96819.69;4965769;28;20066;-69
2021/06/09 07:23:46;;;;;;;4.50;4.13;;;;;;;25.93;45.92;96819.38;4963318;28;20033;-66
2021/06/09 07:26:16;;;;;;;5.53;3.72;;;;;;;25.86;43.87;96794.94;4966371;28;20034;-56
2021/06/09 07:29:01;;;;;;;3.75;3.33;;;;;;;26.65;42.82;96822.75;4954487;28;20487;-58
2021/06/09 07:31:38;;;;;;;4.22;3.92;;;;;;;26.95;43.52;96809.50;4967201;28;20030;-62
2021/06/09 07:34:05;;;;;;;4.13;3.75;;;;;;;27.52;42.03;96799.56;4947416;28;20426;-64
2021/06/09 07:36:47;;;;;;;4.30;4.00;;;;;;;27.57;41.88;96812.31;4962041;28;20054;-65
2021/06/09 07:39:22;;;;;;;6.72;5.60;;;;;;;27.52;42.25;96813.78;4967449;28;20114;-57
2021/06/09 07:41:49;;;;;;;4.40;3.75;;;;;;;27.31;41.76;96814.94;4965310;28;20061;-59
2021/06/09 07:44:17;;;;;;;5.40;4.88;;;;;;;27.29;42.89;96786.19;4963294;28;20035;-66
2021/06/09 07:46:44;;;;;;;5.40;4.20;;;;;;;27.23;42.31;96771.03;4958819;28;20523;-70
2021/06/09 07:49:11;;;;;;;5.05;4.57;;;;;;;27.39;42.45;96812.50;4964737;28;20453;-67
2021/06/09 07:51:37;;;;;;;8.63;4.97;;;;;;;26.41;44.24;96761.47;4965498;28;20059;-57
2021/06/09 07:54:05;;;;;;;5.90;5.35;;;;;;;26.85;42.71;96835.59;4965685;28;20050;-59
2021/06/09 07:56:34;;;;;;;5.55;4.72;;;;;;;27.01;43.29;96821.78;4966691;28;20035;-70
2021/06/09 07:59:05;;;;;;;6.70;5.13;;;;;;;27.36;42.93;96819.94;4966934;28;20406;-58
2021/06/09 08:01:32;;;;;;;6.47;4.50;;;;;;;27.22;42.84;96786.50;4966396;28;20112;-60
2021/06/09 08:04:00;;;;;;;4.35;3.95;;;;;;;27.15;41.90;96764.16;4963920;28;20034;-68
2021/06/09 08:06:27;;;;;;;5.07;4.50;;;;;;;27.54;43.48;96844.59;4966268;28;20038;-64
2021/06/09 08:08:53;;;;;;;5.03;4.18;;;;;;;27.63;42.58;96816.84;4965518;28;20038;-61
2021/06/09 08:11:21;;;;;;;5.18;4.60;;;;;;;27.31;43.08;96823.47;4964720;28;20039;-60
2021/06/09 08:13:47;;;;;;;5.38;4.78;;;;;;;27.24;42.43;96823.78;4965745;28;20077;-57
2021/06/09 08:16:17;;;;;;;7.28;4.47;;;;;;;27.00;43.94;96819.41;4966036;28;20074;-60
2021/06/09 08:18:44;;;;;;;5.28;4.72;;;;;;;26.01;44.13;96817.81;4965670;28;20034;-59
2021/06/09 08:21:11;;;;;;;5.55;4.70;;;;;;;25.83;46.55;96823.50;4966238;28;20141;-67
2021/06/09 08:23:36;;;;;;;4.82;4.30;;;;;;;24.72;47.84;96797.63;4965657;28;20030;-63
2021/06/09 08:26:04;;;;;;;5.38;4.22;;;;;;;23.31;48.96;96745.13;4963015;28;20050;-61
2021/06/09 08:28:33;;;;;;;6.30;4.70;;;;;;;24.33;49.03;96821.09;4964384;28;20038;-57
2021/06/09 08:31:01;;;;;;;6.50;4.57;;;;;;;24.39;49.96;96819.25;4966136;28;20041;-59
2021/06/09 08:33:27;;;;;;;4.78;4.38;;;;;;;24.98;47.65;96810.28;4966152;28;20102;-57
2021/06/09 08:35:52;;;;;;;5.95;3.78;;;;;;;24.49;47.75;96823.69;4965332;28;20043;-68
2021/06/09 08:38:18;;;;;;;4.18;3.78;;;;;;;25.17;45.93;96828.09;4964811;28;20070;-59
2021/06/09 08:40:44;;;;;;;5.40;4.60;;;;;;;25.26;45.57;96814.69;4962536;28;20035;-68
2021/06/09 08:43:11;;;;;;;4.75;4.10;;;;;;;25.58;43.47;96764.25;4953764;28;20077;-62
2021/06/09 08:45:37;;;;;;;8.98;4.05;;;;;;;26.15;42.22;96822.81;4964075;28;20043;-70
2021/06/09 08:48:04;;;;;;;4.03;3.63;;;;;;;26.01;42.72;96772.38;4954699;28;20089;-60
2021/06/09 08:50:30;;;;;;;4.10;3.72;;;;;;;26.71;42.90;96817.22;4964796;28;20055;-56
2021/06/09 08:52:57;;;;;;;7.15;4.00;;;;;;;25.88;41.02;96822.84;4965817;28;20103;-58
2021/06/09 08:55:25;;;;;;;4.03;3.67;;;;;;;25.14;42.50;96789.34;4965815;28;20462;-61
2021/06/09 08:57:51;;;;;;;6.88;5.35;;;;;;;25.55;42.12;96742.53;4965227;28;20038;-61
2021/06/09 09:00:17;;;;;;;5.78;3.78;;;;;;;26.67;42.64;96813.75;4961554;28;20035;-62
2021/06/09 09:02:46;;;;;;;5.75;4.38;;;;;;;26.72;41.21;96787.50;4965158;28;20066;-62
2021/06/09 09:05:11;;;;;;;5.88;4.03;;;;;;;27.32;40.11;96810.81;4963502;28;20050;-61
2021/06/09 09:07:37;;;;;;;7.18;3.78;;;;;;;27.01;39.49;96696.66;4966276;28;20064;-66
2021/06/09 09:10:08;;;;;;;4.93;3.50;;;;;;;27.84;39.29;96792.91;4965542;28;20497;-61
2021/06/09 09:12:36;;;;;;;6.60;4.53;;;;;;;28.05;39.37;96808.84;4965864;28;20042;-61
2021/06/09 09:15:04;;;;;;;4.13;3.83;;;;;;;28.34;38.66;96801.56;4965766;28;20034;-61
2021/06/09 09:17:29;;;;;;;4.40;4.00;;;;;;;28.10;39.12;96759.75;4965505;28;20042;-67
2021/06/09 09:20:07;;;;;;;6.45;4.75;;;;;;;28.44;38.55;96803.00;4964087;28;20496;-64
2021/06/09 09:22:35;;;;;;;4.35;3.95;;;;;;;24.97;39.58;96383.56;4964815;28;20046;-68
2021/06/09 09:25:14;;;;;;;4.55;3.67;;;;;;;28.00;38.96;96817.28;4965703;28;20062;-66
2021/06/09 09:27:40;;;;;;;3.83;3.53;;;;;;;28.22;38.96;96797.72;4965626;28;20058;-67
2021/06/09 09:30:13;;;;;;;4.22;3.88;;;;;;;28.56;37.81;96801.94;4965038;28;20541;-61
2021/06/09 09:33:08;;;;;;;4.03;3.72;;;;;;;27.89;38.46;96795.09;4968417;28;20030;-61
2021/06/09 09:35:40;;;;;;;5.93;3.85;;;;;;;28.45;38.26;96799.66;4982203;28;20034;-64
2021/06/09 09:38:30;;;;;;;5.07;3.70;;;;;;;28.60;37.82;96791.09;4984724;28;20038;-69
2021/06/09 09:41:04;;;;;;;5.75;4.32;;;;;;;28.23;38.56;96789.97;4977334;28;20041;-61
2021/06/09 09:43:41;;;;;;;;;;;;;;;28.56;38.18;96784.81;4965708;28;20141;-65
2021/06/09 09:46:12;;;;;;;5.60;4.30;;;;;;;28.82;37.66;96785.69;4987743;28;19921;-67
2021/06/09 09:48:40;;;;;;;4.90;4.43;;;;;;;28.71;37.05;96777.00;4984375;28;20109;-63
2021/06/09 09:51:06;;;;;;;5.68;4.18;;;;;;;29.02;36.27;96777.19;4983764;28;20555;-58
2021/06/09 09:53:32;;;;;;;4.43;4.13;;;;;;;28.05;35.12;96649.34;4984757;28;20407;-65
2021/06/09 09:56:16;;;;;;;3.58;3.38;;;;;;;28.21;36.14;96702.16;4983925;28;20101;-61
2021/06/09 09:58:50;;;;;;;4.20;3.90;;;;;;;28.20;35.69;96786.03;4984394;28;20034;-61
2021/06/09 10:01:19;;;;;;;5.18;4.28;;;;;;;28.50;38.04;96775.41;4982172;28;20034;-66
2021/06/09 10:03:47;;;;;;;4.88;4.10;;;;;;;27.63;38.40;96776.22;4982692;28;20429;-67
2021/06/09 10:06:29;;;;;;;4.30;4.00;;;;;;;28.12;38.13;96774.25;4973575;28;20586;-61
2021/06/09 10:08:57;;;;;;;5.00;4.50;;;;;;;28.85;37.15;96776.19;4984005;28;20527;-68
2021/06/09 10:11:24;;;;;;;3.80;3.47;;;;;;;27.40;38.78;96774.22;4972912;28;20027;-60
2021/06/09 10:13:50;;;;;;;5.07;4.68;;;;;;;27.75;39.75;96756.00;4964725;28;20041;-66
2021/06/09 10:16:26;;;;;;;5.53;4.40;;;;;;;28.74;37.01;96765.38;4973814;28;20081;-68
2021/06/09 10:19:10;;;;;;;5.32;4.75;;;;;;;28.61;37.24;96667.25;4983847;28;20051;-68
2021/06/09 10:21:43;;;;;;;;;;;;;;;29.57;35.26;96757.88;4983255;28;20034;-58
2021/06/09 10:24:09;;;;;;;3.88;3.58;;;;;;;28.14;36.37;96750.97;4983935;28;19928;-65
2021/06/09 10:26:37;;;;;;;4.72;3.67;;;;;;;28.29;36.78;96699.66;4983608;28;20046;-68
2021/06/09 10:29:11;;;;;;;4.95;4.45;;;;;;;29.12;36.23;96742.31;4984073;28;20057;-60
2021/06/09 10:31:51;;;;;;;6.10;4.63;;;;;;;28.06;39.10;96667.22;4981604;28;20133;-60
2021/06/09 10:34:16;;;;;;;8.05;5.93;;;;;;;28.42;37.36;96751.41;4986133;28;20042;-65
2021/06/09 10:36:49;;;;;;;13.25;8.65;;;;;;;28.17;36.97;96700.78;4987786;28;20041;-60
2021/06/09 10:39:16;;;;;;;6.22;5.63;;;;;;;27.71;37.12;96741.16;4988352;28;20038;-59
2021/06/09 10:41:47;;;;;;;5.68;5.18;;;;;;;27.64;37.82;96747.28;4987122;28;20527;-65
2021/06/09 10:44:17;;;;;;;5.32;4.55;;;;;;;26.94;38.75;96742.50;4987634;28;20065;-60
2021/06/09 10:50:08;;;;;;;4.07;3.67;;;;;;;27.18;39.17;96706.28;4966461;28;20066;-69
2021/06/09 10:52:34;;;;;;;17.52;10.38;;;;;;;27.61;39.76;96739.72;4987764;28;20505;-69
2021/06/09 10:55:05;;;;;;;3.90;3.60;;;;;;;26.21;39.04;96497.13;4986735;28;20037;-64
2021/06/09 10:57:31;;;;;;;20.90;10.27;;;;;;;27.86;39.02;96733.41;4979601;28;20050;-63
2021/06/09 10:59:57;;;;;;;4.22;3.90;;;;;;;27.83;39.14;96745.78;4984304;28;20112;-71
2021/06/09 11:02:24;;;;;;;3.95;3.55;;;;;;;27.92;38.52;96717.22;4983552;28;20105;-63
2021/06/09 11:04:59;;;;;;;6.97;3.45;;;;;;;27.84;38.91;96733.13;4985317;28;20046;-62
2021/06/09 11:07:35;;;;;;;4.30;3.85;;;;;;;28.15;37.62;96727.69;4986096;28;20138;-58
2021/06/09 11:10:11;;;;;;;4.97;4.55;;;;;;;28.12;38.21;96720.13;4986735;28;20080;-59
2021/06/09 11:12:38;;;;;;;10.32;4.80;;;;;;;27.81;39.44;96719.06;4985062;28;20092;-62
2021/06/09 11:15:17;;;;;;;7.18;3.70;;;;;;;28.23;36.80;96718.75;4983129;28;20386;-61
2021/06/09 11:17:57;;;;;;;3.80;3.50;;;;;;;28.66;36.39;96715.00;4979378;28;20072;-67
2021/06/09 11:20:34;;;;;;;7.43;5.50;;;;;;;28.11;34.57;96653.06;4984187;28;20031;-60
2021/06/09 11:23:04;;;;;;;3.78;3.33;;;;;;;28.38;34.13;96699.53;5000300;28;20042;-65
2021/06/09 11:25:46;;;;;;;9.52;5.57;;;;;;;28.62;33.68;96709.50;4985300;28;20386;-67
2021/06/09 11:28:31;;;;;;;5.32;4.65;;;;;;;28.15;33.66;96699.19;4984672;28;20066;-67
2021/06/09 11:31:09;;;;;;;5.57;3.90;;;;;;;26.87;34.40;96606.44;4984807;28;20049;-68
2021/06/09 11:33:35;;;;;;;7.90;4.00;;;;;;;27.59;35.09;96696.72;4985463;28;20111;-60
2021/06/09 11:36:08;;;;;;;20.23;11.07;;;;;;;26.99;35.86;96625.25;4985825;28;20437;-66
2021/06/09 11:38:39;;;;;;;11.68;7.72;;;;;;;27.12;37.24;96691.16;4985554;28;20029;-61
2021/06/09 11:41:11;;;;;;;8.25;5.13;;;;;;;26.67;34.98;96535.22;4984641;28;20034;-65
2021/06/09 11:43:55;;;;;;;5.15;3.90;;;;;;;27.49;35.83;96681.00;4983110;28;20057;-65
2021/06/09 11:46:39;;;;;;;20.08;11.23;;;;;;;28.18;35.48;96674.66;4985252;28;20066;-62
2021/06/09 11:49:08;;;;;;;10.20;5.65;;;;;;;28.72;35.56;96673.09;4986927;28;20563;-66
2021/06/09 11:52:06;;;;;;;7.60;4.40;;;;;;;27.95;36.26;96670.69;4984970;28;20060;-57
2021/06/09 11:54:33;;;;;;;3.30;3.10;;;;;;;26.81;39.30;96682.25;4986082;28;20053;-58
2021/06/09 11:57:03;;;;;;;4.00;3.50;;;;;;;26.64;39.42;96610.09;4985434;28;20121;-68
2021/06/09 11:59:37;;;;;;;3.90;3.60;;;;;;;27.17;40.93;96687.66;4984259;28;20117;-65
2021/06/09 12:02:19;;;;;;;3.35;3.05;;;;;;;27.28;39.35;96687.88;4973733;28;20465;-59
2021/06/09 12:04:49;;;;;;;7.28;4.00;;;;;;;27.16;39.69;96679.59;4982997;28;20042;-58
2021/06/09 12:07:29;;;;;;;3.75;3.40;;;;;;;26.95;38.84;96675.84;4983779;28;20081;-62
2021/06/09 12:09:59;;;;;;;6.18;3.50;;;;;;;26.75;37.56;96598.94;4984492;28;20030;-60
2021/06/09 12:12:27;;;;;;;6.15;3.30;;;;;;;27.49;38.33;96669.63;4983407;28;20038;-61
2021/06/09 12:14:54;;;;;;;4.05;3.38;;;;;;;27.69;37.04;96666.88;4983841;28;20034;-65
2021/06/09 12:17:31;;;;;;;3.20;2.90;;;;;;;27.90;36.77;96665.69;4985151;28;20042;-63
2021/06/09 12:20:07;;;;;;;4.57;3.60;;;;;;;28.06;35.70;96645.22;4985265;28;20053;-65
2021/06/09 12:22:33;;;;;;;3.40;3.20;;;;;;;28.89;33.97;96625.56;4983394;28;20050;-65
2021/06/09 12:25:01;;;;;;;3.80;3.50;;;;;;;30.35;32.20;96660.13;4985118;28;20042;-68
2021/06/09 12:27:27;;;;;;;4.20;3.63;;;;;;;31.49;30.51;96639.53;4985333;28;20040;-62
2021/06/09 12:29:52;;;;;;;3.65;3.38;;;;;;;32.60;28.86;96655.31;4985135;28;20038;-65
2021/06/09 12:32:30;;;;;;;3.58;3.28;;;;;;;33.48;27.98;96639.81;4983010;28;20482;-65
2021/06/09 12:35:12;;;;;;;4.07;3.50;;;;;;;34.01;26.78;96649.84;4980262;28;20045;-60
2021/06/09 12:37:44;;;;;;;7.88;4.18;;;;;;;31.53;31.35;96631.44;4966066;28;20043;-59
2021/06/09 12:40:13;;;;;;;5.05;4.55;;;;;;;30.92;29.92;96368.84;4970694;28;20409;-77
2021/06/09 12:42:45;;;;;;;4.22;3.80;;;;;;;33.34;29.07;96650.31;4999291;28;20062;-58
2021/06/09 12:45:12;;;;;;;4.22;3.50;;;;;;;32.32;27.34;96350.66;4984529;28;20561;-67
2021/06/09 12:47:39;;;;;;;4.90;4.45;;;;;;;34.22;28.91;96608.59;4984921;28;20040;-61
2021/06/09 12:50:23;;;;;;;4.53;4.00;;;;;;;34.94;28.54;96631.59;4985212;28;20054;-63
2021/06/09 12:52:56;;;;;;;4.72;3.70;;;;;;;33.29;31.14;96636.75;4985351;28;20489;-69
2021/06/09 12:55:34;;;;;;;4.07;3.78;;;;;;;31.40;32.91;96525.22;4978419;28;20030;-64
2021/06/09 12:58:03;;;;;;;3.50;3.17;;;;;;;29.67;35.68;96542.25;4981395;28;20039;-62
2021/06/09 13:00:49;;;;;;;4.18;3.88;;;;;;;31.00;32.38;96634.44;4980397;28;20598;-70
2021/06/09 13:03:50;;;;;;;3.47;3.20;;;;;;;29.53;34.09;96623.13;4982421;28;20124;-68
2021/06/09 13:06:25;;;;;;;9.75;6.68;;;;;;;29.25;33.85;96503.03;4968610;28;20066;-74
2021/06/09 13:08:50;;;;;;;10.75;7.15;;;;;;;30.43;33.30;96624.03;4982959;28;20038;-61
2021/06/09 13:11:24;;;;;;;16.90;9.00;;;;;;;30.03;33.13;96575.75;4985052;28;20117;-67
2021/06/09 13:13:55;;;;;;;11.73;9.02;;;;;;;29.04;35.63;96632.75;4984640;28;20100;-64
2021/06/09 13:16:25;;;;;;;6.03;5.32;;;;;;;28.49;37.57;96631.31;4977980;28;20038;-61
2021/06/09 13:18:59;;;;;;;7.00;5.32;;;;;;;27.87;36.78;96517.78;4959085;28;20046;-59
2021/06/09 13:21:27;;;;;;;9.15;6.45;;;;;;;28.77;38.00;96623.91;4951399;28;20204;-69
2021/06/09 13:23:56;;;;;;;14.88;8.57;;;;;;;28.82;38.17;96626.00;4955828;28;20469;-74
2021/06/09 13:26:22;;;;;;;10.93;7.15;;;;;;;27.88;36.08;96473.84;4955808;28;20441;-70
2021/06/09 13:28:47;;;;;;;4.75;3.80;;;;;;;28.58;36.76;96571.31;4957291;28;20034;-61
2021/06/09 13:31:14;;;;;;;10.32;4.88;;;;;;;28.50;36.40;96610.09;4960044;28;20497;-72
2021/06/09 13:33:43;;;;;;;4.88;4.47;;;;;;;28.72;35.81;96621.75;4960346;28;20022;-69
2021/06/09 13:36:15;;;;;;;5.65;5.10;;;;;;;28.55;36.65;96617.94;4958940;28;20042;-61
2021/06/09 13:38:41;;;;;;;11.57;6.97;;;;;;;27.69;36.88;96527.41;4958977;28;20176;-67
2021/06/09 13:41:11;;;;;;;4.93;4.05;;;;;;;27.81;38.46;96596.66;4954986;28;20042;-71
2021/06/09 13:43:36;;;;;;;6.88;4.63;;;;;;;27.51;37.35;96618.69;4955272;28;20108;-66
2021/06/09 13:46:04;;;;;;;3.42;3.22;;;;;;;27.49;36.53;96583.50;4956445;28;20038;-67
2021/06/09 13:48:32;;;;;;;11.18;6.07;;;;;;;26.96;39.83;96631.91;4955900;28;20037;-63
2021/06/09 13:51:07;;;;;;;11.77;8.10;;;;;;;26.30;42.42;96637.00;4948547;28;20060;-65
2021/06/09 13:53:52;;;;;;;14.32;8.77;;;;;;;26.05;43.82;96636.72;4956299;28;20640;-68
2021/06/09 13:56:43;;;;;;;3.80;3.25;;;;;;;25.39;45.72;96640.78;4956797;28;20051;-60
2021/06/09 13:59:11;;;;;;;4.25;3.95;;;;;;;24.81;47.16;96647.50;4998154;28;20038;-61
2021/06/09 14:01:38;;;;;;;5.32;4.15;;;;;;;24.80;47.11;96640.22;4983933;28;20531;-61
2021/06/09 14:04:04;;;;;;;4.13;3.78;;;;;;;24.55;48.06;96643.38;4983857;28;20076;-69
2021/06/09 14:06:29;;;;;;;6.35;4.30;;;;;;;24.59;48.35;96646.84;4998535;28;20046;-60
2021/06/09 14:09:21;;;;;;;3.47;3.28;;;;;;;24.28;49.88;96651.06;4983849;28;20084;-61
2021/06/09 14:12:10;;;;;;;4.15;3.63;;;;;;;24.21;47.96;96646.50;4981821;28;20058;-60
2021/06/09 14:14:37;;;;;;;4.18;3.78;;;;;;;25.22;47.42;96655.28;4984376;28;20030;-62
2021/06/09 14:17:16;;;;;;;4.72;4.25;;;;;;;25.05;46.82;96571.09;4983994;28;20069;-60
2021/06/09 14:20:05;;;;;;;4.13;3.28;;;;;;;26.27;44.27;96635.13;4999005;28;20579;-61
2021/06/09 14:22:36;;;;;;;5.43;3.30;;;;;;;25.46;45.11;96629.88;4983752;28;20049;-61
2021/06/09 14:25:27;;;;;;;5.00;4.28;;;;;;;24.59;46.54;96584.53;4983852;28;20121;-62
2021/06/09 14:28:00;;;;;;;3.60;3.40;;;;;;;25.02;47.64;96635.16;4982740;28;20053;-61
2021/06/09 14:30:48;;;;;;;5.75;4.00;;;;;;;25.16;47.87;96628.84;4982813;28;20510;-62
2021/06/09 14:35:49;;;;;;;3.92;3.63;;;;;;;25.00;48.65;96623.53;4983999;28;20497;-61
2021/06/09 14:38:31;;;;;;;4.15;3.65;;;;;;;25.07;49.13;96630.94;4982637;28;20030;-61
2021/06/09 14:40:58;;;;;;;3.90;3.60;;;;;;;24.62;49.69;96634.56;4983791;28;20034;-61
2021/06/09 14:43:27;;;;;;;4.80;3.58;;;;;;;26.42;44.75;96621.00;4998486;28;20058;-61
2021/06/09 14:45:56;;;;;;;3.83;3.53;;;;;;;25.04;47.02;96626.19;4983752;28;20042;-62
2021/06/09 14:51:26;;;;;;;4.93;3.40;;;;;;;24.40;47.70;96599.97;4983210;28;20055;-62
2021/06/09 14:53:53;;;;;;;3.75;3.08;;;;;;;24.27;49.02;96635.31;4997708;28;20053;-63
2021/06/09 14:56:20;;;;;;;6.03;4.03;;;;;;;23.88;50.84;96636.97;4982799;28;20576;-62
2021/06/09 14:58:46;;;;;;;5.07;3.55;;;;;;;23.45;51.10;96586.22;4983433;28;20488;-61
2021/06/09 15:01:13;;;;;;;6.28;3.80;;;;;;;23.71;52.39;96635.66;4983539;28;20497;-61
2021/06/09 15:03:39;;;;;;;4.53;2.83;;;;;;;23.23;52.30;96596.78;4998208;28;20050;-61
2021/06/09 15:06:07;;;;;;;4.93;3.85;;;;;;;23.58;52.99;96646.31;4983657;28;20488;-61
2021/06/09 15:08:33;;;;;;;5.90;3.55;;;;;;;22.69;52.29;96523.06;4981926;28;20046;-61
2021/06/09 15:10:59;;;;;;;3.40;3.10;;;;;;;23.34;52.06;96648.06;4981905;28;20112;-62
2021/06/09 15:13:24;;;;;;;4.38;3.60;;;;;;;23.47;51.23;96629.75;4982154;28;20030;-62
2021/06/09 15:15:50;;;;;;;4.95;3.25;;;;;;;24.10;51.31;96648.19;4981726;28;20117;-62
2021/06/09 15:21:00;;;;;;;4.28;3.20;;;;;;;24.58;50.33;96648.09;4984749;28;20069;-62
2021/06/09 15:23:26;;;;;;;4.28;3.47;;;;;;;25.26;48.42;96638.88;4985609;28;20556;-65
2021/06/09 15:25:52;;;;;;;5.07;4.20;;;;;;;25.02;49.16;96640.06;4986212;28;20068;-61
2021/06/09 15:28:17;;;;;;;4.78;4.18;;;;;;;24.67;48.17;96568.81;4987428;28;20502;-62
2021/06/09 15:30:43;;;;;;;5.95;4.18;;;;;;;24.92;49.83;96644.97;4986620;28;20197;-61
2021/06/09 15:33:11;;;;;;;4.45;3.40;;;;;;;24.58;51.07;96650.16;4985298;28;20034;-63
2021/06/09 15:35:37;;;;;;;5.68;3.83;;;;;;;24.80;50.68;96645.91;4986473;28;20464;-61
2021/06/09 15:38:04;;;;;;;3.67;3.33;;;;;;;25.07;49.71;96648.69;4986862;28;20521;-61
2021/06/09 15:40:29;;;;;;;3.67;3.25;;;;;;;25.61;48.32;96647.78;4984689;28;20081;-62
2021/06/09 15:42:55;;;;;;;6.28;3.33;;;;;;;26.09;47.21;96648.66;4987355;28;20038;-61
2021/06/09 15:45:21;;;;;;;4.97;3.50;;;;;;;25.95;46.61;96587.69;4986926;28;20476;-61
2021/06/09 15:47:46;;;;;;;4.38;3.55;;;;;;;26.20;46.72;96597.81;4986549;28;20108;-62
2021/06/09 15:50:12;;;;;;;3.70;3.40;;;;;;;25.62;47.86;96620.19;4986071;28;20055;-62
2021/06/09 15:52:41;;;;;;;6.20;3.70;;;;;;;25.61;46.52;96595.94;4986680;28;20041;-64
2021/06/09 15:55:09;;;;;;;3.90;3.25;;;;;;;26.22;46.32;96647.19;4966929;28;20054;-61
2021/06/09 15:57:35;;;;;;;3.72;3.45;;;;;;;27.10;44.70;96641.72;4965435;28;20054;-61
2021/06/09 16:00:03;;;;;;;7.32;4.68;;;;;;;27.88;43.26;96628.34;4967311;28;20066;-61
2021/06/09 16:02:29;;;;;;;5.47;4.20;;;;;;;28.40;40.99;96628.56;4965259;28;20429;-61
2021/06/09 16:04:54;;;;;;;4.43;3.92;;;;;;;27.62;42.54;96644.50;4965430;28;20101;-61
2021/06/09 16:07:20;;;;;;;8.55;5.10;;;;;;;27.05;43.51;96614.75;4966905;28;20030;-61
2021/06/09 16:09:45;;;;;;;4.13;3.72;;;;;;;27.85;41.95;96595.16;4966499;28;20062;-60
2021/06/09 16:12:11;;;;;;;4.93;4.32;;;;;;;29.01;39.90;96635.81;4966128;28;20037;-62
2021/06/09 16:14:37;;;;;;;4.05;3.75;;;;;;;28.86;39.31;96643.69;4966823;28;20054;-61
2021/06/09 16:17:03;;;;;;;7.40;4.47;;;;;;;27.91;41.41;96610.31;4966066;28;20043;-60
2021/06/09 16:19:29;;;;;;;4.65;3.78;;;;;;;27.62;42.34;96649.41;4964381;28;20039;-64
2021/06/09 16:21:55;;;;;;;5.82;4.45;;;;;;;28.50;41.24;96655.69;4965952;28;20073;-61
2021/06/09 16:24:21;;;;;;;33.35;13.52;;;;;;;29.33;39.21;96648.88;4964926;28;20062;-61
2021/06/09 16:26:46;;;;;;;8.30;6.47;;;;;;;28.58;40.84;96605.53;4966107;28;20027;-60
2021/06/09 16:29:12;;;;;;;9.68;5.88;;;;;;;27.80;43.08;96649.19;4966044;28;20113;-63
2021/06/09 16:31:37;;;;;;;6.78;4.07;;;;;;;26.93;43.56;96654.84;4965438;28;20421;-59
2021/06/09 16:34:03;;;;;;;6.10;5.13;;;;;;;27.01;42.14;96651.16;4964505;28;20113;-62
2021/06/09 16:36:28;;;;;;;4.85;3.97;;;;;;;26.16;43.40;96648.31;4963359;28;20046;-61
2021/06/09 16:38:54;;;;;;;4.35;3.95;;;;;;;25.52;44.74;96593.13;4966019;28;20049;-61
2021/06/09 16:41:19;;;;;;;4.22;3.30;;;;;;;25.64;45.29;96663.06;4965512;28;20554;-61
2021/06/09 16:43:45;;;;;;;8.40;5.55;;;;;;;27.23;42.86;96648.72;4966217;28;20074;-62
2021/06/09 16:46:10;;;;;;;5.75;5.22;;;;;;;28.20;40.14;96654.22;4964635;28;20035;-61
2021/06/09 16:48:38;;;;;;;5.38;4.78;;;;;;;27.29;40.50;96598.41;4964171;28;20482;-63
2021/06/09 16:51:03;;;;;;;14.05;10.48;;;;;;;26.59;41.92;96539.69;4963536;28;20054;-60
2021/06/09 16:53:29;;;;;;;11.02;8.18;;;;;;;25.71;45.00;96617.31;4964280;28;20094;-64
2021/06/09 17:01:11;;;;;;;5.78;4.65;;;;;;;23.75;48.74;96593.88;4965363;28;20050;-62
2021/06/09 17:03:39;;;;;;;5.88;4.78;;;;;;;23.85;49.74;96657.72;4965937;28;20034;-62
2021/06/09 17:06:05;;;;;;;9.00;7.00;;;;;;;23.79;51.08;96656.72;4963349;28;20359;-61
2021/06/09 17:08:30;;;;;;;6.32;3.78;;;;;;;23.21;51.98;96621.91;4964871;28;20034;-62
2021/06/09 17:10:55;;;;;;;7.32;5.22;;;;;;;23.15;52.93;96657.69;4964653;28;20605;-61
2021/06/09 17:13:23;;;;;;;8.07;6.05;;;;;;;23.05;53.83;96664.50;4965196;28;20490;-64
2021/06/09 17:15:49;;;;;;;17.80;11.13;;;;;;;22.38;53.96;96600.00;4963228;28;20101;-61
2021/06/09 17:18:14;;;;;;;11.13;6.32;;;;;;;22.96;53.48;96678.59;4963403;28;20026;-62
2021/06/09 17:20:42;;;;;;;7.07;6.18;;;;;;;22.87;52.89;96672.88;4964908;28;20545;-64
2021/06/09 17:23:08;;;;;;;7.20;5.85;;;;;;;22.26;52.31;96575.44;4965473;28;20611;-61
2021/06/09 17:25:34;;;;;;;8.80;7.13;;;;;;;23.02;52.50;96683.19;4965058;28;20041;-62
2021/06/09 17:28:00;;;;;;;6.78;3.80;;;;;;;22.96;53.22;96684.25;4964940;28;20063;-61
2021/06/09 17:30:26;;;;;;;4.60;3.25;;;;;;;22.83;53.50;96680.69;4964742;28;20486;-62
2021/06/09 17:32:51;;;;;;;3.92;3.53;;;;;;;22.76;53.59;96658.38;4964692;28;20039;-61
2021/06/09 17:35:17;;;;;;;5.25;3.85;;;;;;;23.00;53.85;96682.09;4964596;28;20441;-61
2021/06/09 17:37:45;;;;;;;4.68;3.97;;;;;;;22.98;54.35;96679.72;4963589;28;20369;-62
2021/06/09 17:40:11;;;;;;;4.38;3.88;;;;;;;22.67;55.12;96661.13;4963114;28;20043;-60
2021/06/09 17:42:36;;;;;;;4.65;4.20;;;;;;;22.43;55.28;96647.41;4964207;28;20105;-60
2021/06/09 17:45:03;;;;;;;5.60;4.60;;;;;;;22.75;55.62;96687.84;4964018;28;20061;-64
2021/06/09 17:47:28;;;;;;;11.60;7.13;;;;;;;22.65;55.50;96708.81;4962986;28;20054;-61
2021/06/09 17:49:55;;;;;;;6.32;4.93;;;;;;;22.30;55.49;96660.75;4963274;28;20494;-63
2021/06/09 17:52:21;;;;;;;3.90;3.50;;;;;;;22.68;55.88;96696.59;4964781;28;20034;-60